Aérodrome :
LOGIN :

S'inscrire | Disclaimer

   EN    FR    IT 

 










Légende :    VFR   VFR Marginal   IFR   IFR Intensif   IFR Très Intensif
Visi : 
Plafond : 
>= 8 km
>= 3000ft
5 à 8 km
1000 à 3000 ft
1500m à 5 km
500 à 1000 ft
800 à 1500m
200 à 500 ft
< 800m
< 200 ft
Symboles :   Orages  Brouillard  Fortes neiges  Fortes précipitations  Vent > 20 kt
SIGMETs :   Divers  Orages  Givrage  Turbulence  Onde Orograph.  Cendres Volcan.







- Altitude de l'aérodrome : 352 ft
- Code IATA : ARW


LRAR - Arad International

DERNIER METAR :
  • 131430Z VRB02KT 3000 BR FEW011 01/01 Q1020 R09/19//95

METARs EXPIRÉS :
  • 131400Z 28003KT 3500 BR FEW012 01/01 Q1020 R09/19//95
  • 131330Z 26003KT 240V300 4000 BR FEW003 01/01 Q1021 R09/19//95
  • 131300Z VRB02KT 4000 BR SCT005 01/01 Q1020 R09/19//95
  • 131230Z VRB01KT 3000 BR SCT003 01/01 Q1020 R09/19//95
  • 131200Z VRB01KT 1500 BR SCT001 BKN003 00/00 Q1021 R09/19//95

TAF TAF LRAR
Valide du 13 à 12h jusqu'au 13 à 21h UTC


131100Z 1312/1321 VRB04KT 0350 FZFG OVC001
TEMPO 1312/1315 1500 BR BKN005
Pas de NOTAMs connus pour ce terrain.



MET'MAP, la Météo Aéronautique d'un coup d'oeil ! - Copyright ORBIFLY Décembre 2007 - Disclaimer

ORBIFLY MET'MAP TEAM :

Programmation & Développement : Alexandra Zaïnal
Conception & Développement : Baudouin d'Aumeries
Co-Programmation & Développement : Marc-Olivier Méhu
Soutien technique & logistique : Manuel Goepfert

Contact : metmap@orbifly.com




SOURCES & CREDITS :

   NOAA